Time;durP1;ratioP1;P1;durP2;ratioP2;P2;SDS_P1;SDS_P2;PMS_P1;PMS_P2;Temp;Humidity;BMP_temperature;BMP_pressure;BME280_temperature;BME280_humidity;BME280_pressure;Samples;Min_cycle;Max_cycle;Signal;HPM_P1;HPM_P2
2021/08/06 00:01:39;;;;;;;9.47;6.27;;;;;;;16.23;73.48;96001.22;126944;1092;62568;-59
2021/08/06 00:04:06;;;;;;;10.87;7.23;;;;;;;16.23;73.58;95996.76;126959;1092;62617;-63
2021/08/06 00:06:33;;;;;;;8.43;6.53;;;;;;;16.25;73.58;95996.56;126983;1092;62735;-60
2021/08/06 00:09:00;;;;;;;8.60;6.43;;;;;;;16.24;73.73;96002.84;127060;1092;62642;-60
2021/08/06 00:11:29;;;;;;;8.53;6.40;;;;;;;16.21;73.60;96004.01;127059;1092;62619;-60
2021/08/06 00:13:56;;;;;;;9.20;6.20;;;;;;;16.21;73.45;96011.92;127033;1092;62616;-59
2021/08/06 00:16:24;;;;;;;8.77;6.70;;;;;;;16.22;73.27;96004.83;126924;1092;62629;-59
2021/08/06 00:18:51;;;;;;;9.20;6.73;;;;;;;16.25;73.25;96007.93;126924;1092;62725;-62
2021/08/06 00:21:18;;;;;;;8.67;6.50;;;;;;;16.27;73.41;96008.58;126932;1092;62617;-60
2021/08/06 00:23:45;;;;;;;11.10;7.00;;;;;;;16.29;73.27;95995.20;126921;1092;62619;-59
2021/08/06 00:26:12;;;;;;;8.13;6.57;;;;;;;16.31;73.38;96003.74;126902;1092;62633;-60
2021/08/06 00:28:42;;;;;;;10.23;7.50;;;;;;;16.32;73.75;96002.77;126905;1092;62619;-56
2021/08/06 00:31:09;;;;;;;9.50;7.23;;;;;;;16.33;74.13;96009.67;126947;1092;62625;-58
2021/08/06 00:33:36;;;;;;;8.03;6.37;;;;;;;16.34;74.24;96003.39;126953;1092;62612;-58
2021/08/06 00:36:03;;;;;;;7.33;6.30;;;;;;;16.34;74.47;96007.84;126968;1092;62569;-59
2021/08/06 00:38:30;;;;;;;8.33;6.97;;;;;;;16.33;74.54;96004.40;126971;1092;62684;-52
2021/08/06 00:40:57;;;;;;;8.90;6.97;;;;;;;16.33;74.04;96000.95;127104;1092;62699;-53
2021/08/06 00:43:24;;;;;;;9.67;7.00;;;;;;;16.31;74.00;96003.74;127070;1092;62615;-60
2021/08/06 00:45:51;;;;;;;9.27;7.73;;;;;;;16.27;73.95;95990.13;127162;1092;63028;-60
2021/08/06 00:48:18;;;;;;;8.47;6.80;;;;;;;16.26;74.19;95998.20;127061;1092;63021;-58
2021/08/06 00:50:45;;;;;;;8.65;7.00;;;;;;;16.24;73.99;95997.57;127056;1092;62658;-59
2021/08/06 00:53:12;;;;;;;8.13;6.77;;;;;;;16.22;74.41;95997.77;127070;1092;62617;-59
2021/08/06 00:55:39;;;;;;;8.80;6.63;;;;;;;16.21;74.35;95984.74;127123;1092;62572;-55
2021/08/06 00:58:06;;;;;;;8.07;6.67;;;;;;;16.20;74.73;95991.84;127127;1092;62635;-58
2021/08/06 01:00:33;;;;;;;8.33;6.90;;;;;;;16.19;74.66;95992.84;126935;1092;62625;-58
2021/08/06 01:03:09;;;;;;;7.83;6.10;;;;;;;16.18;74.76;95993.03;126980;1092;62652;-57
2021/08/06 01:05:40;;;;;;;8.87;6.37;;;;;;;16.18;74.78;95991.21;126935;1092;62778;-55
2021/08/06 01:08:37;;;;;;;7.47;6.10;;;;;;;16.18;74.97;95993.84;127044;1092;62758;-59
2021/08/06 01:11:04;;;;;;;7.73;6.93;;;;;;;16.19;74.90;95999.94;127006;1092;62681;-61
2021/08/06 01:13:37;;;;;;;6.40;5.77;;;;;;;16.19;74.88;95992.03;127082;1092;62592;-59
2021/08/06 01:16:04;;;;;;;8.37;6.30;;;;;;;16.19;74.92;95978.84;127093;1092;62641;-56
2021/08/06 01:18:32;;;;;;;7.03;6.03;;;;;;;16.19;74.80;95974.39;127070;1092;62620;-56
2021/08/06 01:21:04;;;;;;;6.97;6.23;;;;;;;16.18;74.72;95983.30;127151;1092;63013;-58
2021/08/06 01:23:34;;;;;;;9.50;6.20;;;;;;;16.18;74.59;95991.21;127148;1092;62631;-57
2021/08/06 01:26:03;;;;;;;8.33;6.68;;;;;;;16.17;74.79;95996.64;127099;1092;63024;-58
2021/08/06 01:28:32;;;;;;;9.23;7.33;;;;;;;16.14;74.89;95987.30;127018;1092;62633;-61
2021/08/06 01:30:59;;;;;;;7.50;6.80;;;;;;;16.13;75.16;95987.45;127091;1092;62620;-61
2021/08/06 01:33:26;;;;;;;9.07;6.70;;;;;;;16.09;75.19;95988.84;127143;1092;62617;-54
2021/08/06 01:35:53;;;;;;;7.20;6.20;;;;;;;16.06;75.07;95990.00;127073;1092;62990;-58
2021/08/06 01:38:20;;;;;;;7.23;6.43;;;;;;;16.00;75.15;95981.01;126997;1092;62617;-57
2021/08/06 01:40:53;;;;;;;6.87;6.00;;;;;;;16.00;75.45;95988.09;126869;1092;62572;-59
2021/08/06 01:43:42;;;;;;;7.73;6.10;;;;;;;15.97;75.49;95991.90;127096;1092;62703;-57
2021/08/06 01:46:45;;;;;;;7.03;6.20;;;;;;;15.96;75.57;95979.73;126962;1092;62620;-57
2021/08/06 01:49:19;;;;;;;6.40;5.50;;;;;;;16.00;76.16;95975.73;126664;1095;62623;-56
2021/08/06 01:51:49;;;;;;;7.73;6.93;;;;;;;16.01;76.29;95977.37;127077;1091;62633;-61
2021/08/06 01:54:16;;;;;;;7.07;5.90;;;;;;;16.05;76.30;95969.92;127177;1092;62653;-54
2021/08/06 01:56:43;;;;;;;6.40;5.77;;;;;;;16.05;76.43;95969.92;127054;1092;62652;-56
2021/08/06 01:59:10;;;;;;;5.77;5.10;;;;;;;16.09;76.24;95968.57;126904;1092;62735;-58
2021/08/06 02:01:38;;;;;;;6.17;5.27;;;;;;;16.11;76.21;95971.83;127028;1092;62655;-60
2021/08/06 02:04:05;;;;;;;6.57;5.20;;;;;;;16.13;76.36;95972.48;126917;1092;62607;-58
2021/08/06 02:06:32;;;;;;;6.73;5.30;;;;;;;16.16;76.44;95969.47;126967;1092;62651;-58
2021/08/06 02:08:59;;;;;;;8.27;5.47;;;;;;;16.18;76.39;95977.22;126965;1092;62617;-55
2021/08/06 02:11:27;;;;;;;6.77;5.00;;;;;;;16.19;76.36;95974.39;126976;1092;62582;-57
2021/08/06 02:13:54;;;;;;;5.63;4.60;;;;;;;16.23;76.77;95973.03;127009;1092;62617;-56
2021/08/06 02:16:24;;;;;;;5.83;4.80;;;;;;;16.28;76.51;95977.76;126971;1092;62636;-53
2021/08/06 02:18:51;;;;;;;5.60;5.00;;;;;;;16.31;76.00;95982.64;126900;1092;62630;-58
2021/08/06 02:21:25;;;;;;;5.23;4.73;;;;;;;16.33;75.62;95993.03;127010;1092;62616;-57
2021/08/06 02:23:53;;;;;;;6.50;4.87;;;;;;;16.37;75.44;95995.13;127128;1092;62726;-59
2021/08/06 02:26:21;;;;;;;6.90;4.80;;;;;;;16.40;75.17;95991.29;127146;1092;62666;-57
2021/08/06 02:28:50;;;;;;;6.03;5.40;;;;;;;16.40;75.13;95980.74;126979;1092;62655;-59
2021/08/06 02:31:17;;;;;;;5.78;5.10;;;;;;;16.41;74.96;95990.31;127055;1092;62911;-57
2021/08/06 02:33:44;;;;;;;6.77;4.53;;;;;;;16.41;74.80;95992.95;126938;1092;62628;-58
2021/08/06 02:36:12;;;;;;;6.40;5.20;;;;;;;16.41;74.99;95985.86;126955;1092;62655;-58
2021/08/06 02:38:39;;;;;;;6.77;5.43;;;;;;;16.42;74.92;95992.76;126963;1092;62636;-60
2021/08/06 02:41:06;;;;;;;6.53;4.90;;;;;;;16.42;74.36;95995.39;127058;1092;62627;-60
2021/08/06 02:43:33;;;;;;;5.33;4.50;;;;;;;16.43;74.07;96004.13;126945;1092;62632;-56
2021/08/06 02:46:00;;;;;;;5.80;5.13;;;;;;;16.44;74.20;96011.84;126978;1092;62615;-57
2021/08/06 02:48:27;;;;;;;6.27;5.20;;;;;;;16.43;74.03;96004.94;126993;1092;62629;-58
2021/08/06 02:50:54;;;;;;;7.07;5.53;;;;;;;16.42;74.02;96003.31;126901;1092;62639;-60
2021/08/06 02:53:21;;;;;;;5.47;4.90;;;;;;;16.40;73.82;96000.02;126988;1092;62628;-57
2021/08/06 02:55:48;;;;;;;5.33;4.47;;;;;;;16.39;73.84;96000.20;126958;1092;62616;-57
2021/08/06 02:58:15;;;;;;;5.67;4.87;;;;;;;16.38;73.75;96003.85;127009;1092;62614;-57
2021/08/06 03:00:42;;;;;;;5.00;4.50;;;;;;;16.35;73.93;95993.66;126961;1092;62616;-55
2021/08/06 03:03:09;;;;;;;5.17;4.27;;;;;;;16.32;73.92;95996.67;127055;1092;62572;-59
2021/08/06 03:05:36;;;;;;;6.00;4.53;;;;;;;16.30;74.09;96002.92;127103;1092;62595;-56
2021/08/06 03:08:04;;;;;;;6.60;5.13;;;;;;;16.28;74.62;95999.67;127165;1092;62647;-54
2021/08/06 03:10:31;;;;;;;5.00;4.50;;;;;;;16.27;74.34;96005.13;126981;1092;62680;-58
2021/08/06 03:12:58;;;;;;;5.57;4.37;;;;;;;16.25;74.59;95994.75;126869;1092;62719;-57
2021/08/06 03:15:25;;;;;;;5.20;4.50;;;;;;;16.26;75.08;96000.83;126953;1092;63124;-53
2021/08/06 03:17:52;;;;;;;4.90;4.40;;;;;;;16.27;74.89;96002.49;126969;1092;62585;-57
2021/08/06 03:20:22;;;;;;;6.23;4.40;;;;;;;16.26;74.83;96012.20;127114;1092;62620;-55
2021/08/06 03:22:49;;;;;;;;;;;;;;;16.25;75.66;96000.02;127093;1092;62620;-54
2021/08/06 03:25:16;;;;;;;5.70;4.77;;;;;;;16.27;75.62;95998.03;127050;1092;62638;-59
2021/08/06 03:27:43;;;;;;;5.53;4.53;;;;;;;16.28;75.39;96006.76;127086;1092;62613;-58
2021/08/06 03:30:12;;;;;;;7.07;4.43;;;;;;;16.27;75.08;96003.31;127023;1092;62617;-54
2021/08/06 03:32:40;;;;;;;5.68;4.40;;;;;;;16.27;75.42;96003.31;127094;1090;62635;-54
2021/08/06 03:35:07;;;;;;;4.83;4.33;;;;;;;16.26;75.21;96001.65;126944;1092;62694;-57
2021/08/06 03:37:34;;;;;;;5.67;4.93;;;;;;;16.27;75.19;96003.31;127098;1092;62788;-57
2021/08/06 03:40:01;;;;;;;6.27;4.67;;;;;;;16.27;75.00;96002.49;127030;1092;62625;-57
2021/08/06 03:42:28;;;;;;;6.90;5.13;;;;;;;16.25;74.74;96000.02;127076;1092;62561;-57
2021/08/06 03:44:55;;;;;;;5.20;4.70;;;;;;;16.25;74.89;96000.02;127072;1092;62639;-55
2021/08/06 03:47:22;;;;;;;4.83;4.13;;;;;;;16.26;74.93;95995.56;126895;1092;63089;-58
2021/08/06 03:49:49;;;;;;;5.23;4.60;;;;;;;16.25;75.03;95997.38;126904;1092;62616;-58
2021/08/06 03:52:16;;;;;;;7.00;4.80;;;;;;;16.26;74.91;96004.28;126986;1092;62581;-55
2021/08/06 03:54:43;;;;;;;6.33;4.57;;;;;;;16.27;74.88;96000.67;126936;1092;62649;-59
2021/08/06 03:57:10;;;;;;;6.20;4.03;;;;;;;16.30;74.97;96002.92;126932;1092;62660;-57
2021/08/06 03:59:37;;;;;;;5.20;4.70;;;;;;;16.30;74.48;96002.92;126921;1092;62755;-55
2021/08/06 04:02:04;;;;;;;5.97;5.17;;;;;;;16.30;74.15;96018.75;126997;1092;63330;-61
2021/08/06 04:04:30;;;;;;;7.80;5.87;;;;;;;16.28;74.22;96012.85;127012;1092;62601;-54
2021/08/06 04:06:57;;;;;;;7.40;4.80;;;;;;;16.28;74.16;96010.22;126879;1092;62588;-57
2021/08/06 04:09:24;;;;;;;5.63;5.07;;;;;;;16.30;74.45;96010.84;127020;1091;62604;-57
2021/08/06 04:11:51;;;;;;;6.87;4.33;;;;;;;16.34;74.94;96013.13;127069;1092;62757;-55
2021/08/06 04:14:18;;;;;;;7.13;5.70;;;;;;;16.39;75.25;96021.30;127166;1092;62783;-58
2021/08/06 04:16:47;;;;;;;6.87;5.10;;;;;;;16.45;75.09;96023.20;127125;1092;62604;-52
2021/08/06 04:19:15;;;;;;;7.37;4.87;;;;;;;16.50;75.36;96015.56;127041;1092;62911;-60
2021/08/06 04:21:42;;;;;;;6.03;4.83;;;;;;;16.57;74.82;96013.85;126913;1092;63041;-58
2021/08/06 04:24:08;;;;;;;8.10;4.73;;;;;;;16.64;74.37;96019.20;126936;1091;62634;-57
2021/08/06 04:26:36;;;;;;;4.95;4.45;;;;;;;16.70;73.86;96023.77;126894;1092;62726;-59
2021/08/06 04:29:03;;;;;;;6.47;5.60;;;;;;;16.77;73.74;96025.50;126945;1092;62617;-62
2021/08/06 04:31:30;;;;;;;6.23;4.97;;;;;;;16.85;74.37;96029.87;126880;1092;62649;-63
2021/08/06 04:33:57;;;;;;;7.03;6.40;;;;;;;16.93;73.19;96023.68;126893;1092;62613;-63
2021/08/06 04:36:24;;;;;;;6.63;6.03;;;;;;;16.97;72.89;96019.67;126900;1092;62718;-64
2021/08/06 04:38:51;;;;;;;6.57;5.50;;;;;;;17.02;72.95;96025.21;126988;1092;62617;-64
2021/08/06 04:41:17;;;;;;;5.93;5.27;;;;;;;17.10;73.48;96025.11;127131;1092;62629;-66
2021/08/06 04:43:44;;;;;;;9.20;6.63;;;;;;;17.19;74.78;96020.52;127133;1092;62571;-64
2021/08/06 04:46:13;;;;;;;6.77;5.30;;;;;;;17.31;74.09;96033.05;127196;1092;62569;-65
2021/08/06 04:48:39;;;;;;;7.57;5.53;;;;;;;17.44;73.73;96037.66;127005;1092;62719;-66
2021/08/06 04:51:06;;;;;;;5.43;4.30;;;;;;;17.53;72.55;96047.10;127050;1092;62603;-66
2021/08/06 04:53:34;;;;;;;6.30;4.80;;;;;;;17.61;72.28;96048.81;126907;1092;63021;-65
2021/08/06 04:56:01;;;;;;;7.77;5.63;;;;;;;17.72;72.91;96050.94;127029;1092;62612;-66
2021/08/06 04:58:28;;;;;;;5.87;5.23;;;;;;;17.86;73.28;96059.03;126997;1092;62565;-67
2021/08/06 05:00:55;;;;;;;9.17;5.40;;;;;;;17.99;73.17;96059.16;127064;1092;62700;-65
2021/08/06 05:03:22;;;;;;;6.20;5.57;;;;;;;18.14;72.80;96059.88;126969;1092;63073;-65
2021/08/06 05:05:49;;;;;;;6.23;5.00;;;;;;;18.26;72.18;96063.64;126896;1092;62848;-65
2021/08/06 05:08:16;;;;;;;6.20;5.50;;;;;;;18.39;72.27;96073.48;126886;1092;62617;-65
2021/08/06 05:10:43;;;;;;;5.57;4.93;;;;;;;18.48;71.34;96067.03;126875;1092;62624;-66
2021/08/06 05:13:10;;;;;;;6.00;5.40;;;;;;;18.66;71.30;96078.95;126928;1092;62744;-66
2021/08/06 05:15:37;;;;;;;5.90;4.85;;;;;;;18.82;71.19;96071.56;127125;1092;62569;-64
2021/08/06 05:18:04;;;;;;;5.03;4.53;;;;;;;19.00;69.90;96079.00;127033;1090;62629;-66
2021/08/06 05:20:32;;;;;;;5.10;4.60;;;;;;;19.20;69.86;96086.20;126900;1092;62624;-66
2021/08/06 05:22:59;;;;;;;4.50;4.07;;;;;;;19.37;69.16;96092.80;126922;1092;62894;-65
2021/08/06 05:25:26;;;;;;;4.83;3.90;;;;;;;19.53;68.25;96092.44;126934;1092;62794;-68
2021/08/06 05:27:53;;;;;;;4.70;3.90;;;;;;;19.72;67.74;96103.33;126908;1092;62973;-67
2021/08/06 05:30:22;;;;;;;4.73;3.17;;;;;;;19.81;66.96;96110.89;127013;1092;62675;-67
2021/08/06 05:32:50;;;;;;;5.57;3.57;;;;;;;19.92;66.71;96109.50;127023;1092;62620;-64
2021/08/06 05:35:17;;;;;;;4.93;3.53;;;;;;;20.02;66.78;96117.88;126850;1094;62625;-66
2021/08/06 05:37:44;;;;;;;4.60;4.00;;;;;;;20.12;66.06;96122.78;126865;1092;62680;-67
2021/08/06 05:40:11;;;;;;;4.37;3.47;;;;;;;20.22;65.98;96120.55;127024;1092;62743;-65
2021/08/06 05:42:38;;;;;;;17.20;10.57;;;;;;;20.31;65.41;96129.94;126943;1092;62674;-66
2021/08/06 05:45:06;;;;;;;7.73;5.40;;;;;;;20.39;64.83;96130.77;126995;1092;62684;-66
2021/08/06 05:47:46;;;;;;;6.43;4.30;;;;;;;20.48;64.55;96126.92;127043;1092;62617;-66
2021/08/06 05:50:14;;;;;;;5.07;3.60;;;;;;;20.57;63.71;96128.35;126970;1092;62661;-64
2021/08/06 05:52:41;;;;;;;9.30;7.00;;;;;;;20.64;63.42;96126.49;127128;1092;62776;-66
2021/08/06 05:55:09;;;;;;;11.77;8.13;;;;;;;20.73;63.36;96130.56;126910;1092;62625;-66
2021/08/06 05:57:36;;;;;;;7.20;5.47;;;;;;;20.87;63.00;96126.05;126947;1092;62569;-68
2021/08/06 06:00:05;;;;;;;7.97;5.70;;;;;;;20.99;62.45;96119.09;126842;1092;62585;-66
2021/08/06 06:02:32;;;;;;;5.73;4.23;;;;;;;21.14;60.65;96116.19;127026;1092;62641;-65
2021/08/06 06:04:59;;;;;;;2.37;2.17;;;;;;;21.25;58.83;96115.53;126933;1092;62776;-64
2021/08/06 06:07:26;;;;;;;3.40;2.67;;;;;;;21.37;58.44;96118.39;126936;1092;62632;-65
2021/08/06 06:09:53;;;;;;;5.37;3.33;;;;;;;21.49;58.53;96114.06;126881;1092;62619;-65
2021/08/06 06:12:20;;;;;;;3.50;2.43;;;;;;;21.67;57.18;96109.86;126934;1092;62623;-66
2021/08/06 06:14:47;;;;;;;4.07;3.50;;;;;;;21.82;57.04;96108.56;126847;1092;62674;-64
2021/08/06 06:17:14;;;;;;;3.80;2.67;;;;;;;21.99;57.08;96110.70;126839;1092;62762;-64
2021/08/06 06:19:45;;;;;;;3.10;2.43;;;;;;;22.12;56.92;96118.63;126942;1092;62636;-64
2021/08/06 06:22:12;;;;;;;2.23;1.60;;;;;;;22.20;54.30;96123.70;126925;1092;62620;-63
2021/08/06 06:24:39;;;;;;;2.20;1.70;;;;;;;22.26;53.89;96120.17;127085;1092;62638;-65
2021/08/06 06:27:07;;;;;;;2.53;1.30;;;;;;;22.31;54.25;96127.50;126921;1092;62674;-66
2021/08/06 06:29:34;;;;;;;6.27;4.50;;;;;;;22.37;53.31;96126.66;127022;1092;62713;-65
2021/08/06 06:32:01;;;;;;;4.03;2.90;;;;;;;22.35;52.73;96118.06;126997;1092;62680;-65
2021/08/06 06:34:28;;;;;;;2.07;1.53;;;;;;;22.32;51.74;96119.33;127024;1092;62639;-65
2021/08/06 06:36:55;;;;;;;2.47;2.03;;;;;;;22.25;49.43;96115.88;127090;1092;62993;-68
2021/08/06 06:39:22;;;;;;;1.87;1.47;;;;;;;22.20;51.45;96123.70;127115;1092;62617;-63
2021/08/06 06:41:49;;;;;;;2.33;1.40;;;;;;;22.16;51.11;96124.34;127024;1092;62646;-64
2021/08/06 06:44:16;;;;;;;3.07;1.50;;;;;;;22.12;51.44;96118.63;126987;1092;62636;-65
2021/08/06 06:46:42;;;;;;;4.80;3.30;;;;;;;22.06;49.95;96124.79;126991;1092;62588;-65
2021/08/06 06:49:09;;;;;;;5.13;3.37;;;;;;;22.01;50.04;96121.96;126946;1092;62636;-68
2021/08/06 06:51:36;;;;;;;1.30;0.83;;;;;;;21.97;49.12;96120.75;126978;1092;62703;-66
2021/08/06 06:54:03;;;;;;;2.75;1.20;;;;;;;21.97;49.80;96126.08;126920;1092;62771;-64
2021/08/06 06:56:30;;;;;;;1.53;0.87;;;;;;;21.98;50.10;96117.88;126957;1092;62621;-64
2021/08/06 06:58:57;;;;;;;3.13;1.40;;;;;;;22.04;50.32;96121.52;127118;1092;62620;-64
2021/08/06 07:01:24;;;;;;;2.77;1.43;;;;;;;22.08;49.94;96120.87;127121;1092;63076;-63
2021/08/06 07:03:51;;;;;;;3.47;1.30;;;;;;;22.11;48.77;96117.82;127043;1092;62672;-66
2021/08/06 07:06:19;;;;;;;2.50;1.20;;;;;;;22.12;48.17;96118.63;126940;1092;62616;-64
2021/08/06 07:08:47;;;;;;;3.27;1.13;;;;;;;22.18;47.29;96116.95;127140;1092;62700;-66
2021/08/06 07:11:14;;;;;;;1.53;1.00;;;;;;;22.22;48.35;96118.97;126996;1092;62600;-64
2021/08/06 07:13:40;;;;;;;1.50;0.73;;;;;;;22.27;46.65;96119.13;127090;1090;62605;-66
2021/08/06 07:16:07;;;;;;;1.33;1.00;;;;;;;22.32;47.15;96119.33;126976;1090;63006;-63
2021/08/06 07:18:34;;;;;;;1.60;0.70;;;;;;;22.37;45.54;96110.69;126906;1092;62720;-62
2021/08/06 07:21:01;;;;;;;1.00;0.85;;;;;;;22.44;45.43;96121.27;126939;1092;62588;-61
2021/08/06 07:23:29;;;;;;;0.73;0.70;;;;;;;22.51;46.39;96122.86;126933;1092;62671;-61
2021/08/06 07:25:56;;;;;;;1.63;0.83;;;;;;;22.58;45.61;96125.45;126992;1092;62639;-60
2021/08/06 07:28:23;;;;;;;1.10;0.70;;;;;;;22.60;46.00;96128.70;126945;1092;62757;-61
2021/08/06 07:30:50;;;;;;;0.90;0.70;;;;;;;22.60;46.30;96128.70;127110;1092;62745;-59
2021/08/06 07:33:17;;;;;;;0.67;0.53;;;;;;;22.52;45.77;96127.14;127031;1092;62627;-58
2021/08/06 07:35:44;;;;;;;0.90;0.80;;;;;;;22.48;46.62;96127.80;127010;1092;62619;-58
2021/08/06 07:38:11;;;;;;;0.67;0.67;;;;;;;22.43;44.99;96132.95;126989;1092;62665;-63
2021/08/06 07:40:38;;;;;;;0.57;0.57;;;;;;;22.33;45.28;96144.09;126882;1092;62678;-53
2021/08/06 07:43:05;;;;;;;0.70;0.60;;;;;;;22.29;45.18;96134.91;127043;1092;62910;-53
2021/08/06 07:45:32;;;;;;;1.50;0.80;;;;;;;22.28;45.14;96133.28;126992;1092;62617;-54
2021/08/06 07:47:59;;;;;;;1.03;0.60;;;;;;;22.27;44.74;96136.95;126939;1092;62605;-54
2021/08/06 07:50:26;;;;;;;1.63;0.63;;;;;;;22.23;44.83;96147.23;126990;1092;62635;-53
2021/08/06 07:52:53;;;;;;;1.17;0.60;;;;;;;22.18;44.49;96138.24;126929;1092;62663;-56
2021/08/06 07:55:20;;;;;;;0.50;0.50;;;;;;;22.15;44.77;96138.69;126895;1092;62755;-58
2021/08/06 07:57:47;;;;;;;0.60;0.60;;;;;;;22.14;44.62;96145.02;126976;1092;62626;-52
2021/08/06 08:00:15;;;;;;;1.43;0.60;;;;;;;22.10;43.16;96147.28;126932;1092;62625;-52
2021/08/06 08:02:42;;;;;;;0.87;0.70;;;;;;;22.09;44.25;96143.81;126902;1092;62612;-51
2021/08/06 08:05:09;;;;;;;0.57;0.57;;;;;;;22.13;44.62;96146.87;126970;1092;62653;-51
2021/08/06 08:07:36;;;;;;;0.83;0.83;;;;;;;22.13;42.81;96151.38;127026;1092;62779;-62
2021/08/06 08:10:05;;;;;;;0.87;0.70;;;;;;;22.16;43.43;96143.79;127143;1092;62618;-64
2021/08/06 08:12:32;;;;;;;0.97;0.80;;;;;;;22.20;43.48;96141.52;126971;1092;62629;-64
2021/08/06 08:14:59;;;;;;;0.50;0.50;;;;;;;22.25;44.16;96155.80;127162;1092;62610;-63
2021/08/06 08:17:26;;;;;;;0.40;0.40;;;;;;;22.29;41.93;96151.69;127014;1092;62657;-56
2021/08/06 08:19:53;;;;;;;0.60;0.60;;;;;;;22.33;43.56;96154.73;127031;1092;62602;-48
2021/08/06 08:22:19;;;;;;;0.60;0.60;;;;;;;22.39;43.50;96156.53;126970;1092;62636;-65
2021/08/06 08:24:47;;;;;;;1.20;0.60;;;;;;;22.46;44.50;96162.61;127121;1092;62863;-51
2021/08/06 08:27:14;;;;;;;0.60;0.60;;;;;;;22.53;44.30;96160.72;127061;1092;62571;-65
2021/08/06 08:29:41;;;;;;;1.23;0.60;;;;;;;22.60;44.27;96164.16;127002;1092;62742;-63
2021/08/06 08:32:08;;;;;;;0.50;0.50;;;;;;;22.68;44.14;96168.38;126909;1092;62780;-52
2021/08/06 08:34:35;;;;;;;0.80;0.60;;;;;;;22.75;43.28;96166.49;126983;1092;62621;-55
2021/08/06 08:37:02;;;;;;;1.00;0.70;;;;;;;22.81;43.92;96168.27;126934;1092;62623;-58
2021/08/06 08:39:29;;;;;;;0.80;0.60;;;;;;;22.87;43.45;96171.91;126972;1092;62625;-53
2021/08/06 08:42:00;;;;;;;1.20;0.80;;;;;;;22.97;44.11;96174.09;127089;1092;62700;-50
2021/08/06 08:44:30;;;;;;;0.80;0.70;;;;;;;23.10;43.67;96168.64;127135;1092;62565;-55
2021/08/06 08:46:57;;;;;;;1.63;1.00;;;;;;;23.23;43.67;96173.03;126994;1092;62703;-48
2021/08/06 08:49:26;;;;;;;0.90;0.60;;;;;;;23.31;43.52;96176.23;126947;1092;63073;-50
2021/08/06 08:51:53;;;;;;;;;;;;;;;23.45;43.15;96168.09;127129;1089;62636;-58
2021/08/06 08:54:20;;;;;;;2.10;0.80;;;;;;;23.62;44.01;96171.80;127039;1092;63012;-49
2021/08/06 08:56:47;;;;;;;1.87;0.70;;;;;;;23.75;43.02;96166.30;127009;1092;62591;-55
2021/08/06 08:59:14;;;;;;;0.87;0.60;;;;;;;23.89;42.81;96169.61;127003;1092;62617;-59
2021/08/06 09:01:41;;;;;;;3.03;0.90;;;;;;;24.02;43.23;96171.30;126990;1092;62651;-49
2021/08/06 09:04:22;;;;;;;1.13;0.70;;;;;;;24.14;43.04;96164.16;126989;1092;62572;-65
2021/08/06 09:06:49;;;;;;;3.10;0.90;;;;;;;24.26;42.92;96178.34;127002;1092;62735;-54
2021/08/06 09:09:21;;;;;;;0.70;0.50;;;;;;;24.41;42.02;96179.84;127208;1092;62667;-67
2021/08/06 09:11:49;;;;;;;1.13;0.60;;;;;;;24.55;41.69;96175.92;127098;1092;62639;-66
2021/08/06 09:14:19;;;;;;;1.00;0.70;;;;;;;24.66;41.58;96177.78;127012;1092;62628;-51
2021/08/06 09:16:58;;;;;;;0.97;0.60;;;;;;;24.76;41.86;96178.02;127079;1092;62546;-49
2021/08/06 09:19:26;;;;;;;0.77;0.63;;;;;;;24.87;41.93;96187.92;127018;1092;62718;-55
2021/08/06 09:22:17;;;;;;;1.07;0.80;;;;;;;24.96;40.91;96192.91;127097;1092;63012;-66
2021/08/06 09:25:06;;;;;;;1.73;0.60;;;;;;;24.98;41.34;96183.63;126976;1092;62600;-61
2021/08/06 09:27:43;;;;;;;1.58;0.60;;;;;;;25.08;41.54;96185.75;126944;1092;62620;-62
2021/08/06 09:30:27;;;;;;;1.90;0.40;;;;;;;25.17;41.50;96187.02;127044;1092;62619;-53
2021/08/06 09:32:55;;;;;;;1.33;0.60;;;;;;;25.30;41.06;96188.66;127032;1092;62588;-49
2021/08/06 09:35:32;;;;;;;0.40;0.40;;;;;;;25.37;40.45;96186.66;127096;1092;62745;-52
2021/08/06 09:37:59;;;;;;;0.97;0.60;;;;;;;25.49;40.82;96187.46;126898;1092;62636;-51
2021/08/06 09:40:28;;;;;;;0.70;0.60;;;;;;;25.58;40.40;96190.59;126958;1092;62572;-60
2021/08/06 09:42:59;;;;;;;0.80;0.60;;;;;;;25.66;39.75;96198.26;126994;1092;62572;-61
2021/08/06 09:45:28;;;;;;;1.57;0.70;;;;;;;25.72;39.49;96191.95;126983;1092;62629;-47
2021/08/06 09:47:55;;;;;;;1.75;0.70;;;;;;;25.75;39.53;96204.88;127012;1092;62639;-51
2021/08/06 09:50:26;;;;;;;0.80;0.57;;;;;;;25.74;38.99;96203.22;127091;1092;62619;-48
2021/08/06 09:52:53;;;;;;;0.87;0.70;;;;;;;25.77;39.04;96188.59;127135;1092;62620;-49
2021/08/06 09:55:23;;;;;;;0.63;0.57;;;;;;;25.80;39.70;96190.81;127126;1092;62628;-59
2021/08/06 09:57:51;;;;;;;1.50;0.70;;;;;;;25.85;39.79;96193.58;127110;1092;62735;-50
2021/08/06 10:00:19;;;;;;;1.40;0.60;;;;;;;25.89;38.72;96190.20;126984;1092;62738;-65
2021/08/06 10:02:46;;;;;;;0.67;0.63;;;;;;;25.86;38.13;96182.63;127082;1092;62684;-62
2021/08/06 10:05:15;;;;;;;0.70;0.60;;;;;;;25.84;36.91;96181.26;127074;1092;62664;-50
2021/08/06 10:07:44;;;;;;;2.03;1.30;;;;;;;25.83;37.53;96185.77;126930;1092;62620;-56
2021/08/06 10:10:19;;;;;;;1.57;1.00;;;;;;;25.89;37.49;96186.71;127134;1092;62689;-65
2021/08/06 10:12:46;;;;;;;1.27;1.10;;;;;;;25.96;37.72;96187.37;127119;1092;62627;-53
2021/08/06 10:15:13;;;;;;;2.80;1.70;;;;;;;26.05;37.33;96188.62;127116;1092;62625;-65
2021/08/06 10:17:41;;;;;;;2.27;1.47;;;;;;;26.18;37.64;96184.03;126984;1092;62569;-63
2021/08/06 10:20:10;;;;;;;1.77;0.90;;;;;;;26.29;36.95;96196.55;127024;1092;62625;-66
2021/08/06 10:22:37;;;;;;;2.75;1.20;;;;;;;26.41;37.40;96191.95;127650;1092;62549;-62
2021/08/06 10:25:09;;;;;;;3.70;1.57;;;;;;;26.52;37.46;96182.25;127115;1092;62601;-62
2021/08/06 10:27:37;;;;;;;1.80;1.30;;;;;;;26.61;37.67;96186.16;127129;1092;62611;-54
2021/08/06 10:30:11;;;;;;;2.13;1.43;;;;;;;26.71;37.92;96191.68;127034;1092;63060;-62
2021/08/06 10:32:38;;;;;;;2.00;1.47;;;;;;;26.83;37.90;96188.94;127099;1092;62620;-60
2021/08/06 10:35:08;;;;;;;4.70;1.60;;;;;;;26.96;37.61;96190.48;127050;1092;62616;-52
2021/08/06 10:37:58;;;;;;;2.80;1.27;;;;;;;27.06;37.56;96201.36;127029;1091;62758;-61
2021/08/06 10:40:38;;;;;;;2.80;1.37;;;;;;;27.13;37.78;96193.97;127063;1091;62577;-54
2021/08/06 10:43:08;;;;;;;3.00;1.43;;;;;;;27.17;37.72;96195.11;126998;1092;62617;-53
2021/08/06 10:45:51;;;;;;;2.10;1.20;;;;;;;27.21;37.66;96201.61;126933;1092;62709;-59
2021/08/06 10:48:31;;;;;;;1.97;1.57;;;;;;;27.25;37.46;96192.02;127043;1092;62706;-58
2021/08/06 10:51:30;;;;;;;2.27;1.40;;;;;;;27.25;37.50;96181.28;126998;1092;62632;-52
2021/08/06 10:53:58;;;;;;;2.20;1.50;;;;;;;27.31;37.49;96193.70;126963;1092;62623;-50
2021/08/06 10:56:32;;;;;;;2.27;1.40;;;;;;;27.36;37.64;96198.33;126969;1092;62620;-59
2021/08/06 10:59:00;;;;;;;2.30;1.10;;;;;;;27.39;36.90;96195.16;127034;1092;62630;-61
2021/08/06 11:01:33;;;;;;;2.40;1.47;;;;;;;27.40;36.60;96191.41;127095;1092;62696;-60
2021/08/06 11:04:03;;;;;;;2.80;1.37;;;;;;;27.40;36.70;96196.78;127075;1092;62770;-56
2021/08/06 11:06:37;;;;;;;3.77;1.53;;;;;;;27.43;36.61;96196.30;127036;1092;62613;-55
2021/08/06 11:09:06;;;;;;;2.00;1.17;;;;;;;27.46;36.37;96206.55;127103;1092;62622;-62
2021/08/06 11:11:46;;;;;;;3.67;1.10;;;;;;;27.49;36.48;96202.54;127124;1092;62619;-60
2021/08/06 11:14:18;;;;;;;3.47;0.80;;;;;;;27.51;35.90;96206.61;126935;1092;62821;-56
2021/08/06 11:16:58;;;;;;;3.23;1.80;;;;;;;27.53;35.88;96209.84;127060;1092;62831;-53
2021/08/06 11:19:38;;;;;;;4.10;2.87;;;;;;;27.60;36.08;96205.13;126855;1092;62574;-61
2021/08/06 11:22:16;;;;;;;2.53;2.00;;;;;;;27.69;35.89;96221.62;126941;1092;62612;-51
2021/08/06 11:24:52;;;;;;;3.10;2.30;;;;;;;27.74;35.98;96218.22;126902;1092;63038;-62
2021/08/06 11:27:20;;;;;;;4.00;3.00;;;;;;;27.76;36.10;96210.71;126914;1092;62606;-56
2021/08/06 11:30:02;;;;;;;4.73;2.77;;;;;;;27.79;35.02;96212.91;126961;1090;62619;-61
2021/08/06 11:32:31;;;;;;;2.83;2.10;;;;;;;27.75;34.90;96201.84;127078;1092;62633;-61
2021/08/06 11:35:00;;;;;;;2.63;1.88;;;;;;;27.72;35.12;96204.21;127213;1092;62616;-61